Lapao, Brazil
Current Conditions -  °F | °C
As of 12:00 AM on Saturday 25 Oct 2014 (Local Time) from SBPL Reporting Station
Clear Clear  
Wind Chill: 82°   Ceiling: Unl
Heat Index: 84°   Visibility: 6mi
Dew Point: 64°   Wind: 14mph
Humidity: 54%   Direction: 140°SE
Pressure: 29.91"   Gusts: NA
Location:  11.38°S, 41.83°W
Report Text: SBPL 250300Z 14012KT CAVOK 28/18 Q1013
Loading
Personal Weather Stations






























Interactive Weather Map
Tropical Storm Tracking
New forecast layout! Learn more

10-Day Weather Forecast

Advertisements
Track Severe Weather on mobile